createdAt,value
2023-03-12T00:00:28.028Z,79.76
2023-03-12T00:02:37.824Z,79.73
2023-03-12T00:04:29.936Z,79.77
2023-03-12T00:06:21.775Z,79.65
2023-03-12T00:08:13.521Z,79.63
2023-03-12T00:10:06.945Z,79.66
2023-03-12T00:11:58.702Z,79.42
2023-03-12T00:13:51.785Z,79.34
2023-03-12T00:15:43.445Z,79.41
2023-03-12T00:17:35.492Z,79.22
2023-03-12T00:19:27.796Z,79.18
2023-03-12T00:21:21.306Z,79.07
2023-03-12T00:23:13.119Z,78.87
2023-03-12T00:25:06.735Z,78.78
2023-03-12T00:26:58.476Z,78.65
2023-03-12T00:28:50.343Z,78.53
2023-03-12T00:30:42.665Z,78.49
2023-03-12T00:32:35.155Z,78.48
2023-03-12T00:34:27.208Z,78.30
2023-03-12T00:36:21.387Z,78.24
2023-03-12T00:38:13.013Z,78.14
2023-03-12T00:40:06.137Z,78.01
2023-03-12T00:41:57.690Z,77.79
2023-03-12T00:43:50.682Z,77.54
2023-03-12T00:45:42.453Z,77.55
2023-03-12T00:47:34.223Z,77.51
2023-03-12T00:49:26.087Z,77.33
2023-03-12T00:51:17.908Z,77.12
2023-03-12T00:53:09.772Z,77.01
2023-03-12T00:55:01.247Z,76.83
2023-03-12T00:56:53.065Z,76.86
2023-03-12T00:58:44.785Z,76.76
2023-03-12T01:00:36.504Z,76.70
2023-03-12T01:02:27.871Z,76.77
2023-03-12T01:04:19.479Z,76.71
2023-03-12T01:06:11.382Z,76.66
2023-03-12T01:08:05.142Z,76.73
2023-03-12T01:09:56.903Z,76.79
2023-03-12T01:11:48.444Z,76.82
2023-03-12T01:13:39.931Z,76.67
2023-03-12T01:15:31.891Z,76.47
2023-03-12T01:17:23.644Z,76.37
2023-03-12T01:19:15.721Z,76.36
2023-03-12T01:21:07.846Z,76.29
2023-03-12T01:22:59.394Z,76.36
2023-03-12T01:24:51.230Z,76.29
2023-03-12T01:26:43.204Z,76.23
2023-03-12T01:28:34.710Z,76.13
2023-03-12T01:30:26.337Z,76.17
2023-03-12T01:32:18.277Z,76.12
2023-03-12T01:34:12.248Z,75.86
2023-03-12T01:36:04.167Z,75.66
2023-03-12T01:37:56.205Z,75.56
2023-03-12T01:39:47.715Z,75.63
2023-03-12T01:41:39.261Z,75.51
2023-03-12T01:43:34.141Z,75.61
2023-03-12T01:45:59.412Z,75.46
2023-03-12T01:47:51.272Z,75.32
2023-03-12T01:49:42.707Z,75.33
2023-03-12T01:51:56.905Z,75.20
2023-03-12T01:53:51.541Z,75.22
2023-03-12T01:55:43.514Z,75.11
2023-03-12T01:57:56.462Z,74.97
2023-03-12T01:59:54.411Z,74.80
2023-03-12T02:01:46.426Z,74.65
2023-03-12T02:03:38.255Z,74.50
2023-03-12T02:05:45.424Z,74.50
2023-03-12T02:07:36.908Z,74.50
2023-03-12T02:09:28.792Z,74.55
2023-03-12T02:11:20.605Z,74.35
2023-03-12T02:13:12.764Z,74.36
2023-03-12T02:15:04.984Z,74.30
2023-03-12T02:16:56.729Z,74.09
2023-03-12T02:18:50.227Z,74.30
2023-03-12T02:20:43.563Z,74.15
2023-03-12T02:22:36.822Z,74.10
2023-03-12T02:24:34.296Z,73.95
2023-03-12T02:26:26.552Z,74.03
2023-03-12T02:28:20.812Z,73.93
2023-03-12T02:30:16.100Z,74.08
2023-03-12T02:32:08.893Z,74.08
2023-03-12T02:34:00.735Z,74.10
2023-03-12T02:35:52.390Z,74.07
2023-03-12T02:37:55.327Z,73.79
2023-03-12T02:39:52.340Z,73.62
2023-03-12T02:41:57.725Z,73.73
2023-03-12T02:43:52.781Z,73.65
2023-03-12T02:45:44.669Z,73.53
2023-03-12T02:47:36.606Z,73.45
2023-03-12T02:49:31.927Z,73.18
2023-03-12T02:51:23.729Z,73.28
2023-03-12T02:53:15.489Z,73.32
2023-03-12T02:55:07.357Z,73.03
2023-03-12T02:56:59.197Z,72.90
2023-03-12T02:58:51.011Z,72.62
2023-03-12T03:00:43.040Z,72.70
2023-03-12T03:02:34.861Z,72.48
2023-03-12T03:04:27.957Z,72.45
2023-03-12T03:06:19.139Z,72.45
2023-03-12T03:08:10.506Z,72.27
2023-03-12T03:10:04.441Z,72.28
2023-03-12T03:11:56.562Z,72.28
2023-03-12T03:13:48.221Z,71.86
2023-03-12T03:15:40.800Z,71.67
2023-03-12T03:17:32.389Z,71.66
2023-03-12T03:19:24.168Z,71.58
2023-03-12T03:21:16.898Z,71.36
2023-03-12T03:23:08.688Z,71.49
2023-03-12T03:25:00.611Z,71.36
2023-03-12T03:26:52.444Z,71.08
2023-03-12T03:30:35.888Z,71.06
2023-03-12T03:32:27.548Z,71.09
2023-03-12T03:34:19.124Z,70.87
2023-03-12T03:36:14.988Z,71.03
2023-03-12T03:38:07.684Z,71.05
2023-03-12T03:39:59.600Z,71.03
2023-03-12T03:41:52.236Z,71.12
2023-03-12T03:43:44.465Z,71.03
2023-03-12T03:45:36.405Z,70.96
2023-03-12T03:47:28.214Z,70.88
2023-03-12T03:49:20.356Z,71.15
2023-03-12T03:51:11.912Z,70.80
2023-03-12T03:53:04.806Z,71.00
2023-03-12T03:54:57.219Z,70.73
2023-03-12T03:56:48.472Z,70.88
2023-03-12T03:58:40.329Z,70.77
2023-03-12T04:00:32.123Z,70.72
2023-03-12T04:02:23.645Z,70.85
2023-03-12T04:04:15.275Z,70.96
2023-03-12T04:06:07.628Z,70.91
2023-03-12T04:08:03.120Z,70.95
2023-03-12T04:09:55.393Z,70.75
2023-03-12T04:11:46.716Z,70.96
2023-03-12T04:13:38.301Z,70.96
2023-03-12T04:15:29.681Z,70.77
2023-03-12T04:17:21.210Z,70.97
2023-03-12T04:19:13.119Z,70.50
2023-03-12T04:21:07.185Z,70.82
2023-03-12T04:22:58.803Z,70.61
2023-03-12T04:24:50.763Z,70.56
2023-03-12T04:26:42.684Z,70.73
2023-03-12T04:28:35.347Z,70.57
2023-03-12T04:30:26.905Z,70.62
2023-03-12T04:32:18.376Z,70.72
2023-03-12T04:34:11.949Z,70.56
2023-03-12T04:36:05.828Z,70.65
2023-03-12T04:37:58.729Z,70.57
2023-03-12T04:39:50.309Z,70.47
2023-03-12T04:41:41.829Z,70.49
2023-03-12T04:43:34.083Z,70.30
2023-03-12T04:45:25.861Z,70.48
2023-03-12T04:47:17.274Z,70.19
2023-03-12T04:49:08.897Z,70.24
2023-03-12T04:51:00.354Z,70.21
2023-03-12T04:52:51.898Z,70.30
2023-03-12T04:54:46.739Z,70.26
2023-03-12T04:56:39.653Z,70.08
2023-03-12T04:58:31.864Z,70.31
2023-03-12T05:00:23.850Z,70.01
2023-03-12T05:02:15.357Z,69.95
2023-03-12T05:04:07.652Z,69.61
2023-03-12T05:05:59.270Z,69.65
2023-03-12T05:07:50.918Z,69.39
2023-03-12T05:09:44.257Z,69.00
2023-03-12T05:11:37.215Z,69.09
2023-03-12T05:13:30.909Z,69.07
2023-03-12T05:15:23.005Z,69.12
2023-03-12T05:17:14.834Z,68.86
2023-03-12T05:19:06.590Z,68.80
2023-03-12T05:21:12.773Z,68.52
2023-03-12T05:23:04.559Z,68.69
2023-03-12T05:24:56.254Z,68.74
2023-03-12T05:26:47.695Z,68.98
2023-03-12T05:28:39.579Z,68.96
2023-03-12T05:30:30.979Z,68.54
2023-03-12T05:32:22.767Z,68.18
2023-03-12T05:34:14.734Z,67.67
2023-03-12T05:36:07.003Z,67.56
2023-03-12T05:37:59.093Z,68.04
2023-03-12T05:39:50.907Z,67.98
2023-03-12T05:41:42.852Z,67.63
2023-03-12T05:43:34.588Z,67.60
2023-03-12T05:45:25.995Z,67.12
2023-03-12T05:47:18.198Z,67.01
2023-03-12T05:49:10.068Z,67.02
2023-03-12T05:51:02.095Z,67.05
2023-03-12T05:52:53.859Z,66.95
2023-03-12T05:54:45.572Z,66.31
2023-03-12T05:56:37.988Z,66.46
2023-03-12T05:58:29.815Z,66.40
2023-03-12T06:00:21.485Z,65.91
2023-03-12T06:02:13.190Z,65.08
2023-03-12T06:04:05.197Z,64.97
2023-03-12T06:05:57.319Z,64.90
2023-03-12T06:07:49.032Z,64.71
2023-03-12T06:09:42.167Z,64.71
2023-03-12T06:11:34.967Z,64.58
2023-03-12T06:13:28.519Z,63.43
2023-03-12T06:15:20.216Z,63.38
2023-03-12T06:17:11.816Z,63.88
2023-03-12T06:19:05.255Z,63.30
2023-03-12T06:20:56.460Z,62.70
2023-03-12T06:22:48.215Z,62.83
2023-03-12T06:24:42.637Z,63.13
2023-03-12T06:26:34.752Z,61.98
2023-03-12T06:28:26.579Z,61.04
2023-03-12T06:30:18.298Z,61.86
2023-03-12T06:32:10.213Z,61.29
2023-03-12T06:34:02.238Z,60.69
2023-03-12T06:35:55.515Z,60.73
2023-03-12T06:37:47.380Z,60.33
2023-03-12T06:39:39.112Z,59.85
2023-03-12T06:41:30.885Z,59.38
2023-03-12T06:43:23.880Z,59.61
2023-03-12T06:45:15.608Z,58.88
2023-03-12T06:47:07.326Z,58.65
2023-03-12T06:48:59.201Z,58.67
2023-03-12T06:50:51.556Z,57.37
2023-03-12T06:52:43.347Z,56.81
2023-03-12T06:54:34.741Z,57.50
2023-03-12T06:56:26.966Z,57.69
2023-03-12T06:58:19.013Z,57.54
2023-03-12T07:00:11.580Z,58.24
2023-03-12T07:02:03.612Z,57.02
2023-03-12T07:03:55.649Z,56.89
2023-03-12T07:05:49.299Z,58.01
2023-03-12T07:07:41.186Z,57.86
2023-03-12T07:09:33.136Z,57.11
2023-03-12T07:11:25.165Z,57.15
2023-03-12T07:13:16.898Z,57.63
2023-03-12T07:15:09.038Z,57.20
2023-03-12T07:17:02.490Z,57.09
2023-03-12T07:18:54.707Z,56.12
2023-03-12T07:20:47.681Z,55.56
2023-03-12T07:22:39.296Z,55.56
2023-03-12T07:24:31.274Z,53.71
2023-03-12T07:26:23.423Z,53.72
2023-03-12T07:28:16.217Z,54.68
2023-03-12T07:30:08.492Z,54.95
2023-03-12T07:32:00.665Z,54.58
2023-03-12T07:33:52.824Z,54.79
2023-03-12T07:35:46.038Z,54.87
2023-03-12T07:37:37.660Z,54.88
2023-03-12T07:39:29.707Z,55.36
2023-03-12T07:41:21.231Z,55.65
2023-03-12T07:43:12.914Z,56.60
2023-03-12T07:45:05.531Z,56.86
2023-03-12T07:46:57.896Z,57.26
2023-03-12T07:48:49.744Z,57.20
2023-03-12T07:50:41.516Z,58.19
2023-03-12T07:52:33.540Z,57.56
2023-03-12T07:54:30.671Z,57.25
2023-03-12T07:56:22.455Z,57.42
2023-03-12T07:58:17.115Z,57.84
2023-03-12T08:00:10.607Z,57.02
2023-03-12T08:02:02.673Z,57.63
2023-03-12T08:03:54.530Z,57.12
2023-03-12T08:05:56.706Z,57.46
2023-03-12T08:07:48.829Z,57.50
2023-03-12T08:09:40.709Z,57.66
2023-03-12T08:11:34.811Z,58.26
2023-03-12T08:13:27.479Z,57.42
2023-03-12T08:15:20.453Z,57.99
2023-03-12T08:17:13.044Z,57.64
2023-03-12T08:19:04.588Z,56.24
2023-03-12T08:20:56.634Z,57.10
2023-03-12T08:22:48.683Z,57.79
2023-03-12T08:24:40.946Z,57.26
2023-03-12T08:26:33.162Z,56.96
2023-03-12T08:28:25.321Z,56.15
2023-03-12T08:30:17.396Z,55.20
2023-03-12T08:32:10.976Z,55.51
2023-03-12T08:34:02.866Z,55.92
2023-03-12T08:35:55.093Z,55.18
2023-03-12T08:37:46.653Z,54.93
2023-03-12T08:39:38.509Z,54.68
2023-03-12T08:41:30.449Z,54.28
2023-03-12T08:43:22.005Z,54.44
2023-03-12T08:45:14.673Z,53.83
2023-03-12T08:47:06.613Z,53.37
2023-03-12T08:48:58.097Z,52.99
2023-03-12T08:50:50.836Z,53.10
2023-03-12T08:52:43.918Z,52.94
2023-03-12T08:54:35.915Z,52.60
2023-03-12T08:56:27.563Z,52.24
2023-03-12T08:58:19.114Z,53.01
2023-03-12T09:00:15.077Z,52.96
2023-03-12T09:02:07.611Z,51.91
2023-03-12T09:03:59.714Z,50.28
2023-03-12T09:05:59.405Z,50.93
2023-03-12T09:07:51.241Z,50.18
2023-03-12T09:09:43.020Z,49.18
2023-03-12T09:11:36.489Z,50.08
2023-03-12T09:13:44.092Z,49.77
2023-03-12T09:15:40.561Z,50.36
2023-03-12T09:17:32.562Z,49.57
2023-03-12T09:19:24.620Z,49.42
2023-03-12T09:21:16.849Z,49.81
2023-03-12T09:23:09.084Z,49.13
2023-03-12T09:25:01.044Z,51.20
2023-03-12T09:26:53.152Z,50.05
2023-03-12T09:28:45.335Z,49.53
2023-03-12T09:30:36.925Z,50.45
2023-03-12T09:32:29.414Z,51.19
2023-03-12T09:34:20.843Z,51.14
2023-03-12T09:36:12.569Z,51.20
2023-03-12T09:38:04.632Z,49.80
2023-03-12T09:39:56.308Z,48.62
2023-03-12T09:41:48.950Z,49.88
2023-03-12T09:43:43.361Z,49.77
2023-03-12T09:45:42.988Z,46.41
2023-03-12T09:47:59.060Z,46.13
2023-03-12T09:49:57.081Z,46.47
2023-03-12T09:51:54.070Z,45.18
2023-03-12T09:53:49.647Z,44.27
2023-03-12T09:55:44.057Z,44.54
2023-03-12T09:57:35.616Z,45.46
2023-03-12T09:59:27.288Z,45.84
2023-03-12T10:01:44.638Z,45.75
2023-03-12T10:03:54.991Z,44.50
2023-03-12T10:06:05.729Z,44.50
2023-03-12T10:08:26.763Z,43.07
2023-03-12T10:10:37.304Z,43.54
2023-03-12T10:12:58.115Z,42.74
2023-03-12T10:15:27.823Z,44.60
2023-03-12T10:17:41.593Z,43.51
2023-03-12T10:20:09.657Z,42.48
2023-03-12T10:22:06.319Z,43.81
2023-03-12T10:24:16.838Z,43.48
2023-03-12T10:26:13.985Z,42.26
2023-03-12T10:28:14.849Z,43.09
2023-03-12T10:30:18.730Z,44.42
2023-03-12T10:32:10.328Z,43.56
2023-03-12T10:34:04.280Z,43.13
2023-03-12T10:35:56.576Z,42.88
2023-03-12T10:38:04.948Z,42.67
2023-03-12T10:39:56.853Z,42.96
2023-03-12T10:41:49.237Z,41.80
2023-03-12T10:43:41.546Z,41.02
2023-03-12T10:45:44.931Z,40.64
2023-03-12T10:47:37.904Z,40.69
2023-03-12T10:49:32.740Z,40.69
2023-03-12T10:51:24.488Z,40.22
2023-03-12T10:53:28.559Z,40.25
2023-03-12T10:55:30.261Z,39.71
2023-03-12T10:57:22.846Z,39.60
2023-03-12T10:59:21.988Z,38.11
2023-03-12T11:01:23.988Z,38.89
2023-03-12T11:03:21.036Z,37.06
2023-03-12T11:05:24.442Z,39.32
2023-03-12T11:07:28.550Z,38.70
2023-03-12T11:09:20.309Z,40.87
2023-03-12T11:11:11.756Z,39.80
2023-03-12T11:13:22.122Z,41.28
2023-03-12T11:15:21.457Z,39.42
2023-03-12T11:17:27.737Z,40.39
2023-03-12T11:19:33.837Z,40.20
2023-03-12T11:21:25.672Z,40.21
2023-03-12T11:23:28.994Z,41.02
2023-03-12T11:25:29.084Z,40.90
2023-03-12T11:27:32.312Z,41.53
2023-03-12T11:29:40.115Z,41.47
2023-03-12T11:31:36.359Z,40.22
2023-03-12T11:33:28.873Z,40.48
2023-03-12T11:35:21.643Z,40.29
2023-03-12T11:37:34.419Z,37.79
2023-03-12T11:39:52.613Z,38.63
2023-03-12T11:42:20.806Z,39.35
2023-03-12T11:44:19.066Z,40.25
2023-03-12T11:46:44.710Z,38.68
2023-03-12T11:48:55.318Z,36.10
2023-03-12T11:51:08.831Z,37.24
2023-03-12T11:53:26.000Z,38.12
2023-03-12T11:55:20.020Z,37.38
2023-03-12T11:57:21.046Z,38.71
2023-03-12T11:59:37.280Z,39.27
2023-03-12T12:01:34.174Z,39.18
2023-03-12T12:03:38.029Z,39.15
2023-03-12T12:05:41.287Z,39.39
2023-03-12T12:07:39.294Z,39.42
2023-03-12T12:09:52.145Z,40.79
2023-03-12T12:12:18.930Z,40.45
2023-03-12T12:14:25.857Z,39.73
2023-03-12T12:16:31.109Z,40.23
2023-03-12T12:18:36.144Z,40.42
2023-03-12T12:20:44.572Z,40.68
2023-03-12T12:22:49.636Z,39.40
2023-03-12T12:25:07.168Z,39.45
2023-03-12T12:27:13.559Z,40.20
2023-03-12T12:29:25.085Z,39.71
2023-03-12T12:31:20.161Z,40.36
2023-03-12T12:33:36.153Z,41.48
2023-03-12T12:35:37.695Z,41.41
2023-03-12T12:37:50.893Z,40.86
2023-03-12T12:40:05.540Z,41.31
2023-03-12T12:42:00.051Z,41.63
2023-03-12T12:43:56.402Z,40.92
2023-03-12T12:45:49.001Z,41.56
2023-03-12T12:47:44.834Z,41.76
2023-03-12T12:49:44.339Z,41.86
2023-03-12T12:51:42.354Z,41.22
2023-03-12T12:53:40.867Z,41.44
2023-03-12T12:55:46.250Z,41.81
2023-03-12T12:58:12.857Z,39.74
2023-03-12T13:00:19.822Z,38.06
2023-03-12T13:02:18.397Z,38.89
2023-03-12T13:04:13.505Z,39.92
2023-03-12T13:06:06.860Z,41.46
2023-03-12T13:07:58.569Z,41.35
2023-03-12T13:09:52.674Z,40.75
2023-03-12T13:11:46.699Z,39.85
2023-03-12T13:13:37.981Z,41.01
2023-03-12T13:15:29.671Z,40.93
2023-03-12T13:17:25.422Z,38.55
2023-03-12T13:19:17.239Z,38.18
2023-03-12T13:21:37.535Z,38.08
2023-03-12T13:23:45.210Z,38.43
2023-03-12T13:26:04.958Z,36.55
2023-03-12T13:28:02.190Z,36.93
2023-03-12T13:29:57.381Z,36.83
2023-03-12T13:31:49.069Z,38.47
2023-03-12T13:33:45.469Z,38.42
2023-03-12T13:35:38.301Z,40.64
2023-03-12T13:37:52.904Z,40.74
2023-03-12T13:39:45.218Z,40.16
2023-03-12T13:41:49.830Z,38.90
2023-03-12T13:43:48.967Z,40.89
2023-03-12T13:45:54.436Z,40.54
2023-03-12T13:47:46.769Z,38.80
2023-03-12T13:49:55.359Z,39.96
2023-03-12T13:51:55.896Z,40.59
2023-03-12T13:53:50.315Z,40.94
2023-03-12T13:55:43.409Z,41.32
2023-03-12T13:57:40.231Z,40.18
2023-03-12T13:59:32.345Z,39.22
2023-03-12T14:01:29.138Z,39.09
2023-03-12T14:03:28.833Z,40.67
2023-03-12T14:05:21.302Z,41.45
2023-03-12T14:07:36.274Z,40.31
2023-03-12T14:09:51.456Z,40.20
2023-03-12T14:12:04.288Z,42.24
2023-03-12T14:14:17.458Z,41.46
2023-03-12T14:16:33.781Z,41.10
2023-03-12T14:18:27.293Z,41.38
2023-03-12T14:20:21.521Z,42.94
2023-03-12T14:22:13.605Z,41.04
2023-03-12T14:24:07.284Z,41.58
2023-03-12T14:26:03.911Z,40.24
2023-03-12T14:27:55.972Z,41.45
2023-03-12T14:29:53.609Z,42.14
2023-03-12T14:31:45.570Z,40.54
2023-03-12T14:33:50.805Z,40.44
2023-03-12T14:35:47.007Z,42.08
2023-03-12T14:37:44.304Z,43.52
2023-03-12T14:39:55.598Z,42.50
2023-03-12T14:41:53.074Z,42.45
2023-03-12T14:43:46.514Z,42.78
2023-03-12T14:45:40.702Z,42.70
2023-03-12T14:47:40.894Z,42.30
2023-03-12T14:49:38.641Z,43.15
2023-03-12T14:51:36.029Z,43.49
2023-03-12T14:53:33.392Z,43.82
2023-03-12T14:55:26.381Z,43.50
2023-03-12T14:57:20.478Z,43.53
2023-03-12T14:59:32.027Z,44.05
2023-03-12T15:01:31.168Z,43.91
2023-03-12T15:03:23.895Z,43.80
2023-03-12T15:05:18.723Z,44.02
2023-03-12T15:07:12.886Z,44.50
2023-03-12T15:09:06.706Z,43.82
2023-03-12T15:10:59.370Z,43.44
2023-03-12T15:12:52.736Z,43.13
2023-03-12T15:14:44.800Z,43.13
2023-03-12T15:16:36.566Z,43.22
2023-03-12T15:18:29.875Z,43.86
2023-03-12T15:20:22.320Z,44.56
2023-03-12T15:22:18.051Z,45.06
2023-03-12T15:24:13.322Z,44.86
2023-03-12T15:26:12.846Z,44.75
2023-03-12T15:28:28.244Z,44.77
2023-03-12T15:30:25.476Z,45.19
2023-03-12T15:32:22.671Z,45.37
2023-03-12T15:34:33.372Z,45.42
2023-03-12T15:36:27.781Z,45.91
2023-03-12T15:38:20.639Z,45.18
2023-03-12T15:40:24.371Z,45.24
2023-03-12T15:42:17.763Z,45.26
2023-03-12T15:44:23.655Z,45.88
2023-03-12T15:46:17.675Z,45.00
2023-03-12T15:48:20.108Z,45.09
2023-03-12T15:50:24.230Z,45.20
2023-03-12T15:52:18.676Z,44.19
2023-03-12T15:54:13.078Z,44.72
2023-03-12T15:56:06.572Z,44.49
2023-03-12T15:57:59.939Z,44.68
2023-03-12T16:00:12.110Z,44.82
2023-03-12T16:02:03.914Z,45.56
2023-03-12T16:03:55.758Z,44.85
2023-03-12T16:05:49.354Z,44.84
2023-03-12T16:07:42.271Z,44.91
2023-03-12T16:09:34.820Z,43.67
2023-03-12T16:11:28.734Z,43.57
2023-03-12T16:13:21.964Z,43.66
2023-03-12T16:15:16.106Z,43.77
2023-03-12T16:17:14.148Z,43.95
2023-03-12T16:19:17.355Z,44.28
2023-03-12T16:21:09.117Z,44.95
2023-03-12T16:23:00.860Z,44.81
2023-03-12T16:24:52.578Z,44.53
2023-03-12T16:26:57.782Z,44.56
2023-03-12T16:28:49.565Z,45.20
2023-03-12T16:30:41.232Z,45.40
2023-03-12T16:32:32.640Z,44.90
2023-03-12T16:34:24.357Z,45.13
2023-03-12T16:36:17.517Z,44.98
2023-03-12T16:38:09.230Z,44.88
2023-03-12T16:40:00.859Z,45.09
2023-03-12T16:41:52.571Z,44.97
2023-03-12T16:43:50.051Z,45.88
2023-03-12T16:45:44.444Z,45.52
2023-03-12T16:47:36.334Z,45.94
2023-03-12T16:49:28.045Z,45.99
2023-03-12T16:51:20.212Z,46.04
2023-03-12T16:53:11.678Z,46.67
2023-03-12T16:55:04.240Z,46.60
2023-03-12T16:56:56.043Z,46.47
2023-03-12T16:58:49.714Z,47.04
2023-03-12T17:00:41.558Z,47.37
2023-03-12T17:02:34.075Z,47.59
2023-03-12T17:04:26.040Z,47.72
2023-03-12T17:06:23.819Z,47.79
2023-03-12T17:08:16.252Z,48.20
2023-03-12T17:10:09.174Z,48.27
2023-03-12T17:12:00.920Z,48.50
2023-03-12T17:13:56.331Z,48.74
2023-03-12T17:15:49.473Z,49.17
2023-03-12T17:17:41.287Z,48.99
2023-03-12T17:19:33.441Z,49.34
2023-03-12T17:21:25.211Z,49.12
2023-03-12T17:23:17.581Z,49.10
2023-03-12T17:25:22.169Z,49.47
2023-03-12T17:27:15.590Z,49.40
2023-03-12T17:29:07.610Z,49.90
2023-03-12T17:30:59.883Z,50.07
2023-03-12T17:32:51.901Z,50.59
2023-03-12T17:34:43.863Z,50.86
2023-03-12T17:36:37.705Z,50.80
2023-03-12T17:38:30.590Z,50.99
2023-03-12T17:40:22.264Z,51.20
2023-03-12T17:42:13.988Z,51.54
2023-03-12T17:44:07.317Z,51.80
2023-03-12T17:46:04.632Z,51.89
2023-03-12T17:47:56.425Z,51.97
2023-03-12T17:49:48.473Z,52.18
2023-03-12T17:51:40.183Z,51.97
2023-03-12T17:53:32.159Z,52.41
2023-03-12T17:55:23.763Z,52.30
2023-03-12T17:57:15.581Z,52.36
2023-03-12T17:59:07.666Z,52.31
2023-03-12T18:01:00.143Z,52.49
2023-03-12T18:02:51.979Z,52.40
2023-03-12T18:04:43.797Z,52.49
2023-03-12T18:06:35.388Z,52.59
2023-03-12T18:08:28.137Z,53.01
2023-03-12T18:10:20.494Z,52.63
2023-03-12T18:12:12.504Z,52.68
2023-03-12T18:14:04.413Z,52.96
2023-03-12T18:15:58.376Z,53.18
2023-03-12T18:17:52.438Z,53.18
2023-03-12T18:19:44.479Z,53.40
2023-03-12T18:21:36.234Z,53.73
2023-03-12T18:23:27.878Z,53.73
2023-03-12T18:25:19.725Z,53.74
2023-03-12T18:27:11.494Z,53.94
2023-03-12T18:29:03.354Z,54.04
2023-03-12T18:30:55.287Z,54.06
2023-03-12T18:32:47.231Z,54.17
2023-03-12T18:34:42.332Z,54.16
2023-03-12T18:36:34.096Z,54.25
2023-03-12T18:38:26.057Z,54.56
2023-03-12T18:40:18.210Z,54.41
2023-03-12T18:42:09.998Z,54.47
2023-03-12T18:44:01.880Z,54.52
2023-03-12T18:45:53.725Z,54.43
2023-03-12T18:47:50.222Z,54.62
2023-03-12T18:49:41.880Z,54.63
2023-03-12T18:51:34.360Z,54.93
2023-03-12T18:53:25.924Z,54.80
2023-03-12T18:55:18.409Z,54.94
2023-03-12T18:57:12.470Z,55.08
2023-03-12T18:59:04.168Z,54.99
2023-03-12T19:00:57.882Z,55.05
2023-03-12T19:02:49.585Z,55.17
2023-03-12T19:04:41.360Z,55.20
2023-03-12T19:06:48.060Z,55.38
2023-03-12T19:08:42.503Z,55.26
2023-03-12T19:10:34.461Z,55.39
2023-03-12T19:12:26.238Z,55.44
2023-03-12T19:14:17.786Z,55.57
2023-03-12T19:16:11.556Z,55.77
2023-03-12T19:18:03.899Z,55.62
2023-03-12T19:19:55.427Z,55.86
2023-03-12T19:21:48.053Z,56.02
2023-03-12T19:23:39.381Z,56.10
2023-03-12T19:25:32.205Z,56.07
2023-03-12T19:27:23.968Z,56.20
2023-03-12T19:29:16.647Z,56.50
2023-03-12T19:31:12.140Z,56.36
2023-03-12T19:33:04.222Z,56.52
2023-03-12T19:34:55.976Z,56.49
2023-03-12T19:36:47.778Z,56.60
2023-03-12T19:38:39.601Z,56.64
2023-03-12T19:40:31.122Z,56.71
2023-03-12T19:42:22.766Z,56.76
2023-03-12T19:44:14.204Z,56.74
2023-03-12T19:46:05.802Z,56.68
2023-03-12T19:47:57.605Z,56.98
2023-03-12T19:49:49.300Z,56.76
2023-03-12T19:51:41.362Z,56.96
2023-03-12T19:53:33.112Z,57.06
2023-03-12T19:55:24.777Z,56.91
2023-03-12T19:57:16.265Z,56.89
2023-03-12T19:59:07.591Z,56.89
2023-03-12T20:01:01.907Z,57.08
2023-03-12T20:02:54.832Z,56.98
2023-03-12T20:04:46.325Z,57.27
2023-03-12T20:06:42.524Z,57.25
2023-03-12T20:08:34.459Z,57.15
2023-03-12T20:10:27.807Z,57.29
2023-03-12T20:12:19.544Z,57.57
2023-03-12T20:14:11.329Z,57.47
2023-03-12T20:16:03.975Z,57.45
2023-03-12T20:17:58.400Z,57.72
2023-03-12T20:19:50.229Z,57.66
2023-03-12T20:21:44.183Z,57.75
2023-03-12T20:23:36.216Z,58.08
2023-03-12T20:25:28.242Z,58.23
2023-03-12T20:27:24.298Z,58.42
2023-03-12T20:29:17.109Z,58.51
2023-03-12T20:31:12.596Z,58.51
2023-03-12T20:33:06.033Z,58.64
2023-03-12T20:34:57.900Z,58.74
2023-03-12T20:36:49.774Z,58.74
2023-03-12T20:38:41.651Z,59.03
2023-03-12T20:40:33.918Z,59.21
2023-03-12T20:42:25.530Z,59.63
2023-03-12T20:44:17.113Z,60.61
2023-03-12T20:46:09.704Z,61.76
2023-03-12T20:48:01.368Z,62.67
2023-03-12T20:49:53.256Z,63.73
2023-03-12T20:51:46.012Z,65.57
2023-03-12T20:53:38.162Z,67.26
2023-03-12T20:55:30.275Z,67.57
2023-03-12T20:57:21.909Z,67.63
2023-03-12T20:59:13.904Z,67.70
2023-03-12T21:01:06.153Z,68.39
2023-03-12T21:02:57.727Z,68.50
2023-03-12T21:04:49.582Z,69.02
2023-03-12T21:06:41.453Z,69.03
2023-03-12T21:08:34.422Z,69.08
2023-03-12T21:10:26.513Z,69.27
2023-03-12T21:12:18.050Z,69.65
2023-03-12T21:14:10.138Z,69.60
2023-03-12T21:16:02.177Z,69.86
2023-03-12T21:17:53.664Z,70.09
2023-03-12T21:19:46.565Z,70.48
2023-03-12T21:21:38.080Z,70.55
2023-03-12T21:23:30.671Z,71.05
2023-03-12T21:25:22.420Z,70.97
2023-03-12T21:27:14.294Z,70.97
2023-03-12T21:29:06.010Z,71.10
2023-03-12T21:31:11.701Z,71.05
2023-03-12T21:33:03.444Z,71.29
2023-03-12T21:34:54.887Z,71.53
2023-03-12T21:36:46.460Z,71.34
2023-03-12T21:38:39.246Z,71.42
2023-03-12T21:40:30.971Z,71.53
2023-03-12T21:42:22.514Z,71.57
2023-03-12T21:44:16.414Z,71.67
2023-03-12T21:46:15.339Z,71.91
2023-03-12T21:48:07.040Z,71.81
2023-03-12T21:49:58.827Z,71.86
2023-03-12T21:51:50.125Z,71.94
2023-03-12T21:53:41.715Z,71.98
2023-03-12T21:55:33.346Z,71.95
2023-03-12T21:57:24.861Z,71.80
2023-03-12T21:59:16.645Z,71.84
2023-03-12T22:01:11.257Z,71.71
2023-03-12T22:03:03.079Z,71.88
2023-03-12T22:04:54.596Z,71.98
2023-03-12T22:06:46.509Z,71.90
2023-03-12T22:08:38.293Z,71.90
2023-03-12T22:10:29.832Z,72.03
2023-03-12T22:12:21.268Z,71.79
2023-03-12T22:14:13.107Z,71.87
2023-03-12T22:16:08.244Z,71.84
2023-03-12T22:18:00.196Z,72.19
2023-03-12T22:19:51.466Z,72.22
2023-03-12T22:21:44.858Z,72.24
2023-03-12T22:23:36.811Z,72.19
2023-03-12T22:25:28.127Z,71.97
2023-03-12T22:27:19.793Z,72.11
2023-03-12T22:29:11.697Z,72.00
2023-03-12T22:31:06.044Z,72.08
2023-03-12T22:32:58.057Z,72.23
2023-03-12T22:34:50.124Z,72.09
2023-03-12T22:36:42.071Z,72.02
2023-03-12T22:38:34.463Z,72.00
2023-03-12T22:40:26.730Z,72.17
2023-03-12T22:42:18.355Z,72.11
2023-03-12T22:44:11.126Z,72.12
2023-03-12T22:46:03.006Z,72.25
2023-03-12T22:47:54.932Z,72.17
2023-03-12T22:49:46.811Z,71.97
2023-03-12T22:51:38.940Z,72.10
2023-03-12T22:53:31.626Z,72.22
2023-03-12T22:55:22.933Z,72.23
2023-03-12T22:57:14.488Z,72.15
2023-03-12T22:59:05.799Z,72.13
2023-03-12T23:01:01.587Z,72.20
2023-03-12T23:02:53.354Z,72.28
2023-03-12T23:04:44.992Z,72.18
2023-03-12T23:06:36.603Z,72.23
2023-03-12T23:08:29.447Z,72.05
2023-03-12T23:10:20.786Z,72.12
2023-03-12T23:12:12.601Z,71.97
2023-03-12T23:14:04.354Z,72.01
2023-03-12T23:16:01.923Z,72.02
2023-03-12T23:17:53.652Z,72.01
2023-03-12T23:19:45.499Z,71.81
2023-03-12T23:21:37.273Z,71.91
2023-03-12T23:23:29.422Z,71.93
2023-03-12T23:25:21.301Z,71.95
2023-03-12T23:27:12.906Z,71.85
2023-03-12T23:29:04.706Z,72.12
2023-03-12T23:30:58.586Z,71.78
2023-03-12T23:32:50.452Z,71.91
2023-03-12T23:34:42.221Z,71.77
2023-03-12T23:36:33.937Z,71.97
2023-03-12T23:38:27.249Z,71.95
2023-03-12T23:40:19.016Z,71.82
2023-03-12T23:42:10.552Z,71.95
2023-03-12T23:44:02.499Z,71.83
2023-03-12T23:45:58.434Z,71.74
2023-03-12T23:47:50.272Z,71.69
2023-03-12T23:49:42.034Z,71.78
2023-03-12T23:51:33.994Z,71.73
2023-03-12T23:53:25.900Z,71.78
2023-03-12T23:55:17.795Z,71.69
2023-03-12T23:57:09.317Z,71.68
2023-03-12T23:59:01.262Z,71.66
